Shah Amanat International Airport
VGEG : now visible

Airfield :











YOU CAN JOIN US ON...

 
LOGIN :

Register | Disclaimer

   EN    FR    IT 

 









Legend :    VFR   Marginal VFR   IFR   Intensive IFR   Very Intensive IFR
Visi :
Ceiling :
>= 8 km
>= 3000ft
5 to 8 km
1000 to 3000 ft
1500m to 5 km
500 to 1000 ft
800 to 1500m
200 to 500 ft
< 800m
< 200 ft
Symbols :   Thunderstorms  Fog  Heavy snow  Heavy precipitations  Wind > 20 kt






- Airport Elevation : 12 ft
- IATA code : CGP


VGEG - Shah Amanat International

CURRENT METAR :
  • 200000Z 17006KT 4000 HZ SCT017 FEW028CB 28/27 Q1004 TEMPO RA

EXPIRED METARs :
  • 192000Z 18007KT 5000 HZ SCT017 29/27 Q1003 NOSIG

TAF TAF VGEG
Valid from the 20 at 00:00 until the 21 at 06:00 UTC


192300Z 2000/2106 21015KT 2000 RA/TSRA BKN008 FEW025CB OVC090
BECMG 2004/2006 19012KT 5000 HZ SCT018 SCT100
TEMPO 2018/2103 20020G30KT 2000 RA/TSRA BKN008 FEW025CB OVC080
BECMG 2104/2106 19012KT 5000 HZ SCT018 SCT100
VGFR FIR / Asia



MET'MAP, your aeronautical weather chart ! - Copyright ORBIFLY December 2007 - Disclaimer

ORBIFLY MET'MAP TEAM :

Programming & Development : Alexandra Zaïnal
Original concept : Baudouin d'Aumeries
Technical & hardware support : Manuel Goepfert
Assistance : Marc-Olivier Méhu




SOURCES & CREDITS :

   NOAA       Earth
Advisory